sensor_id;sensor_type;location;lat;lon;timestamp;temperature;humidity
32694;DHT22;19084;44.716;10.218;2022-12-10T00:02:00;5.50;99.90
32694;DHT22;19084;44.716;10.218;2022-12-10T00:04:32;5.50;99.90
32694;DHT22;19084;44.716;10.218;2022-12-10T00:07:05;5.40;99.90
32694;DHT22;19084;44.716;10.218;2022-12-10T00:09:38;5.50;99.90
32694;DHT22;19084;44.716;10.218;2022-12-10T00:12:11;5.50;99.90
32694;DHT22;19084;44.716;10.218;2022-12-10T00:14:43;5.50;99.90
32694;DHT22;19084;44.716;10.218;2022-12-10T00:17:16;5.40;99.90
32694;DHT22;19084;44.716;10.218;2022-12-10T00:19:49;5.50;99.90
32694;DHT22;19084;44.716;10.218;2022-12-10T00:22:22;5.40;99.90
32694;DHT22;19084;44.716;10.218;2022-12-10T00:24:54;5.50;99.90
32694;DHT22;19084;44.716;10.218;2022-12-10T00:27:27;5.80;99.90
32694;DHT22;19084;44.716;10.218;2022-12-10T00:30:00;5.50;99.90
32694;DHT22;19084;44.716;10.218;2022-12-10T00:32:33;5.40;99.90
32694;DHT22;19084;44.716;10.218;2022-12-10T00:35:06;5.50;99.90
32694;DHT22;19084;44.716;10.218;2022-12-10T00:37:39;5.50;99.90
32694;DHT22;19084;44.716;10.218;2022-12-10T00:40:12;6.70;99.90
32694;DHT22;19084;44.716;10.218;2022-12-10T00:42:44;5.50;99.90
32694;DHT22;19084;44.716;10.218;2022-12-10T00:45:17;5.50;99.90
32694;DHT22;19084;44.716;10.218;2022-12-10T00:47:50;5.50;99.90
32694;DHT22;19084;44.716;10.218;2022-12-10T00:50:23;5.50;99.90
32694;DHT22;19084;44.716;10.218;2022-12-10T00:52:55;5.50;99.90
32694;DHT22;19084;44.716;10.218;2022-12-10T00:55:29;5.50;99.90
32694;DHT22;19084;44.716;10.218;2022-12-10T00:58:02;5.50;99.90
32694;DHT22;19084;44.716;10.218;2022-12-10T01:00:34;5.50;99.90
32694;DHT22;19084;44.716;10.218;2022-12-10T01:03:07;5.50;99.90
32694;DHT22;19084;44.716;10.218;2022-12-10T01:05:40;5.40;99.90
32694;DHT22;19084;44.716;10.218;2022-12-10T01:08:13;5.40;99.90
32694;DHT22;19084;44.716;10.218;2022-12-10T01:10:52;5.50;99.90
32694;DHT22;19084;44.716;10.218;2022-12-10T01:13:27;5.50;99.90
32694;DHT22;19084;44.716;10.218;2022-12-10T01:16:02;5.50;99.90
32694;DHT22;19084;44.716;10.218;2022-12-10T01:18:36;5.50;99.90
32694;DHT22;19084;44.716;10.218;2022-12-10T01:21:14;5.50;99.90
32694;DHT22;19084;44.716;10.218;2022-12-10T01:23:49;5.50;99.90
32694;DHT22;19084;44.716;10.218;2022-12-10T01:26:27;5.50;99.90
32694;DHT22;19084;44.716;10.218;2022-12-10T01:29:01;5.50;99.90
32694;DHT22;19084;44.716;10.218;2022-12-10T01:31:37;5.50;99.90
32694;DHT22;19084;44.716;10.218;2022-12-10T01:34:13;5.40;99.90
32694;DHT22;19084;44.716;10.218;2022-12-10T01:36:49;5.50;99.90
32694;DHT22;19084;44.716;10.218;2022-12-10T01:39:23;5.40;99.90
32694;DHT22;19084;44.716;10.218;2022-12-10T01:41:59;5.40;99.90
32694;DHT22;19084;44.716;10.218;2022-12-10T01:47:05;5.40;99.90
32694;DHT22;19084;44.716;10.218;2022-12-10T01:49:39;5.40;99.90
32694;DHT22;19084;44.716;10.218;2022-12-10T01:52:12;5.40;99.90
32694;DHT22;19084;44.716;10.218;2022-12-10T01:54:46;5.40;99.90
32694;DHT22;19084;44.716;10.218;2022-12-10T01:57:23;5.40;99.90
32694;DHT22;19084;44.716;10.218;2022-12-10T02:00:01;5.40;99.90
32694;DHT22;19084;44.716;10.218;2022-12-10T02:02:53;5.40;99.90
32694;DHT22;19084;44.716;10.218;2022-12-10T02:05:35;5.40;99.90
32694;DHT22;19084;44.716;10.218;2022-12-10T02:13:59;6.10;99.90
32694;DHT22;19084;44.716;10.218;2022-12-10T02:16:39;5.40;99.90
32694;DHT22;19084;44.716;10.218;2022-12-10T02:22:09;5.30;99.90
32694;DHT22;19084;44.716;10.218;2022-12-10T02:24:44;5.40;99.90
32694;DHT22;19084;44.716;10.218;2022-12-10T02:27:34;5.40;99.90
32694;DHT22;19084;44.716;10.218;2022-12-10T02:30:09;5.40;99.90
32694;DHT22;19084;44.716;10.218;2022-12-10T02:32:44;5.40;99.90
32694;DHT22;19084;44.716;10.218;2022-12-10T02:35:23;5.40;99.90
32694;DHT22;19084;44.716;10.218;2022-12-10T02:38:05;5.40;99.90
32694;DHT22;19084;44.716;10.218;2022-12-10T02:40:45;5.40;99.90
32694;DHT22;19084;44.716;10.218;2022-12-10T02:43:20;5.40;99.90
32694;DHT22;19084;44.716;10.218;2022-12-10T02:45:56;5.40;99.90
32694;DHT22;19084;44.716;10.218;2022-12-10T02:48:31;5.40;99.90
32694;DHT22;19084;44.716;10.218;2022-12-10T02:51:04;5.40;99.90
32694;DHT22;19084;44.716;10.218;2022-12-10T02:53:42;5.40;99.90
32694;DHT22;19084;44.716;10.218;2022-12-10T02:56:26;5.40;99.90
32694;DHT22;19084;44.716;10.218;2022-12-10T02:59:25;5.40;99.90
32694;DHT22;19084;44.716;10.218;2022-12-10T03:02:19;5.30;99.90
32694;DHT22;19084;44.716;10.218;2022-12-10T03:05:06;5.40;99.90
32694;DHT22;19084;44.716;10.218;2022-12-10T03:10:36;5.40;99.90
32694;DHT22;19084;44.716;10.218;2022-12-10T03:13:13;5.40;99.90
32694;DHT22;19084;44.716;10.218;2022-12-10T03:15:47;5.40;99.90
32694;DHT22;19084;44.716;10.218;2022-12-10T03:18:23;5.40;99.90
32694;DHT22;19084;44.716;10.218;2022-12-10T03:21:03;5.40;99.90
32694;DHT22;19084;44.716;10.218;2022-12-10T03:23:38;5.40;99.90
32694;DHT22;19084;44.716;10.218;2022-12-10T03:26:14;5.40;99.90
32694;DHT22;19084;44.716;10.218;2022-12-10T03:28:52;5.40;99.90
32694;DHT22;19084;44.716;10.218;2022-12-10T03:31:27;5.50;99.90
32694;DHT22;19084;44.716;10.218;2022-12-10T03:34:03;5.40;99.90
32694;DHT22;19084;44.716;10.218;2022-12-10T03:36:38;5.50;99.90
32694;DHT22;19084;44.716;10.218;2022-12-10T03:39:13;5.40;99.90
32694;DHT22;19084;44.716;10.218;2022-12-10T03:41:46;5.40;99.90
32694;DHT22;19084;44.716;10.218;2022-12-10T03:44:35;5.40;99.90
32694;DHT22;19084;44.716;10.218;2022-12-10T03:47:13;5.50;99.90
32694;DHT22;19084;44.716;10.218;2022-12-10T03:49:46;5.40;99.90
32694;DHT22;19084;44.716;10.218;2022-12-10T03:52:19;5.40;99.90
32694;DHT22;19084;44.716;10.218;2022-12-10T03:54:52;5.40;99.90
32694;DHT22;19084;44.716;10.218;2022-12-10T03:57:24;5.40;99.90
32694;DHT22;19084;44.716;10.218;2022-12-10T03:59:57;5.50;99.90
32694;DHT22;19084;44.716;10.218;2022-12-10T04:02:30;5.40;99.90
32694;DHT22;19084;44.716;10.218;2022-12-10T04:05:02;5.50;99.90
32694;DHT22;19084;44.716;10.218;2022-12-10T04:07:36;5.50;99.90
32694;DHT22;19084;44.716;10.218;2022-12-10T04:10:09;5.50;99.90
32694;DHT22;19084;44.716;10.218;2022-12-10T04:12:42;5.50;99.90
32694;DHT22;19084;44.716;10.218;2022-12-10T04:15:15;5.60;99.90
32694;DHT22;19084;44.716;10.218;2022-12-10T04:18:03;5.40;99.90
32694;DHT22;19084;44.716;10.218;2022-12-10T04:20:35;5.50;99.90
32694;DHT22;19084;44.716;10.218;2022-12-10T04:23:24;5.40;99.90
32694;DHT22;19084;44.716;10.218;2022-12-10T04:26:12;5.40;99.90
32694;DHT22;19084;44.716;10.218;2022-12-10T04:29:09;5.40;99.90
32694;DHT22;19084;44.716;10.218;2022-12-10T04:31:42;5.40;99.90
32694;DHT22;19084;44.716;10.218;2022-12-10T04:34:15;5.40;99.90
32694;DHT22;19084;44.716;10.218;2022-12-10T04:36:48;5.40;99.90
32694;DHT22;19084;44.716;10.218;2022-12-10T04:39:20;5.40;99.90
32694;DHT22;19084;44.716;10.218;2022-12-10T04:41:53;5.50;99.90
32694;DHT22;19084;44.716;10.218;2022-12-10T04:44:26;5.40;99.90
32694;DHT22;19084;44.716;10.218;2022-12-10T04:46:58;5.50;99.90
32694;DHT22;19084;44.716;10.218;2022-12-10T04:49:32;5.50;99.90
32694;DHT22;19084;44.716;10.218;2022-12-10T04:52:06;5.40;99.90
32694;DHT22;19084;44.716;10.218;2022-12-10T04:54:40;5.40;99.90
32694;DHT22;19084;44.716;10.218;2022-12-10T04:57:13;5.40;99.90
32694;DHT22;19084;44.716;10.218;2022-12-10T04:59:46;5.40;99.90
32694;DHT22;19084;44.716;10.218;2022-12-10T05:02:18;5.40;99.90
32694;DHT22;19084;44.716;10.218;2022-12-10T05:04:51;5.40;99.90
32694;DHT22;19084;44.716;10.218;2022-12-10T05:07:24;5.40;99.90
32694;DHT22;19084;44.716;10.218;2022-12-10T05:09:56;5.40;99.90
32694;DHT22;19084;44.716;10.218;2022-12-10T05:12:29;6.40;99.90
32694;DHT22;19084;44.716;10.218;2022-12-10T05:15:02;5.90;99.90
32694;DHT22;19084;44.716;10.218;2022-12-10T05:17:35;5.40;99.90
32694;DHT22;19084;44.716;10.218;2022-12-10T05:20:08;5.40;99.90
32694;DHT22;19084;44.716;10.218;2022-12-10T05:22:42;5.30;99.90
32694;DHT22;19084;44.716;10.218;2022-12-10T05:25:30;5.80;99.90
32694;DHT22;19084;44.716;10.218;2022-12-10T05:28:02;5.30;99.90
32694;DHT22;19084;44.716;10.218;2022-12-10T05:30:35;5.30;99.90
32694;DHT22;19084;44.716;10.218;2022-12-10T05:33:08;5.30;99.90
32694;DHT22;19084;44.716;10.218;2022-12-10T05:35:41;5.30;99.90
32694;DHT22;19084;44.716;10.218;2022-12-10T05:38:14;5.30;99.90
32694;DHT22;19084;44.716;10.218;2022-12-10T05:40:47;5.30;99.90
32694;DHT22;19084;44.716;10.218;2022-12-10T05:43:29;5.70;99.90
32694;DHT22;19084;44.716;10.218;2022-12-10T05:46:05;5.40;99.90
32694;DHT22;19084;44.716;10.218;2022-12-10T05:48:38;5.20;99.90
32694;DHT22;19084;44.716;10.218;2022-12-10T05:51:14;5.20;99.90
32694;DHT22;19084;44.716;10.218;2022-12-10T05:53:47;5.20;99.90
32694;DHT22;19084;44.716;10.218;2022-12-10T05:56:22;5.20;99.90
32694;DHT22;19084;44.716;10.218;2022-12-10T05:59:00;5.20;99.90
32694;DHT22;19084;44.716;10.218;2022-12-10T06:01:34;5.20;99.90
32694;DHT22;19084;44.716;10.218;2022-12-10T06:04:08;5.20;99.90
32694;DHT22;19084;44.716;10.218;2022-12-10T06:06:41;5.20;99.90
32694;DHT22;19084;44.716;10.218;2022-12-10T06:09:14;5.10;99.90
32694;DHT22;19084;44.716;10.218;2022-12-10T06:11:47;5.20;99.90
32694;DHT22;19084;44.716;10.218;2022-12-10T06:14:20;5.20;99.90
32694;DHT22;19084;44.716;10.218;2022-12-10T06:16:53;5.20;99.90
32694;DHT22;19084;44.716;10.218;2022-12-10T06:19:25;5.20;99.90
32694;DHT22;19084;44.716;10.218;2022-12-10T06:21:58;5.20;99.90
32694;DHT22;19084;44.716;10.218;2022-12-10T06:24:31;5.20;99.90
32694;DHT22;19084;44.716;10.218;2022-12-10T06:27:04;5.20;99.90
32694;DHT22;19084;44.716;10.218;2022-12-10T06:29:37;5.10;99.90
32694;DHT22;19084;44.716;10.218;2022-12-10T06:32:10;5.10;99.90
32694;DHT22;19084;44.716;10.218;2022-12-10T06:34:42;5.10;99.90
32694;DHT22;19084;44.716;10.218;2022-12-10T06:37:15;5.10;99.90
32694;DHT22;19084;44.716;10.218;2022-12-10T06:39:50;5.10;99.90
32694;DHT22;19084;44.716;10.218;2022-12-10T06:42:24;5.10;99.90
32694;DHT22;19084;44.716;10.218;2022-12-10T06:44:56;5.00;99.90
32694;DHT22;19084;44.716;10.218;2022-12-10T06:47:29;5.10;99.90
32694;DHT22;19084;44.716;10.218;2022-12-10T06:50:02;5.20;99.90
32694;DHT22;19084;44.716;10.218;2022-12-10T06:52:35;5.00;99.90
32694;DHT22;19084;44.716;10.218;2022-12-10T06:55:08;5.10;99.90
32694;DHT22;19084;44.716;10.218;2022-12-10T06:57:41;5.10;99.90
32694;DHT22;19084;44.716;10.218;2022-12-10T07:00:14;5.00;99.90
32694;DHT22;19084;44.716;10.218;2022-12-10T07:02:53;5.10;99.90
32694;DHT22;19084;44.716;10.218;2022-12-10T07:05:26;5.00;99.90
32694;DHT22;19084;44.716;10.218;2022-12-10T07:07:58;5.00;99.90
32694;DHT22;19084;44.716;10.218;2022-12-10T07:10:31;5.10;99.90
32694;DHT22;19084;44.716;10.218;2022-12-10T07:13:04;5.00;99.90
32694;DHT22;19084;44.716;10.218;2022-12-10T07:15:37;5.00;99.90
32694;DHT22;19084;44.716;10.218;2022-12-10T07:18:09;4.90;99.90
32694;DHT22;19084;44.716;10.218;2022-12-10T07:20:42;4.90;99.90
32694;DHT22;19084;44.716;10.218;2022-12-10T07:23:15;4.90;99.90
32694;DHT22;19084;44.716;10.218;2022-12-10T07:25:48;4.90;99.90
32694;DHT22;19084;44.716;10.218;2022-12-10T07:28:21;4.90;99.90
32694;DHT22;19084;44.716;10.218;2022-12-10T07:31:02;4.90;99.90
32694;DHT22;19084;44.716;10.218;2022-12-10T07:33:36;4.90;99.90
32694;DHT22;19084;44.716;10.218;2022-12-10T07:36:10;4.90;99.90
32694;DHT22;19084;44.716;10.218;2022-12-10T07:38:44;4.90;99.90
32694;DHT22;19084;44.716;10.218;2022-12-10T07:41:17;4.80;99.90
32694;DHT22;19084;44.716;10.218;2022-12-10T07:43:50;4.90;99.90
32694;DHT22;19084;44.716;10.218;2022-12-10T07:46:27;4.90;99.90
32694;DHT22;19084;44.716;10.218;2022-12-10T07:49:01;5.00;99.90
32694;DHT22;19084;44.716;10.218;2022-12-10T07:51:34;5.00;99.90
32694;DHT22;19084;44.716;10.218;2022-12-10T07:54:07;5.00;99.90
32694;DHT22;19084;44.716;10.218;2022-12-10T07:56:40;5.00;99.90
32694;DHT22;19084;44.716;10.218;2022-12-10T07:59:13;5.00;99.90
32694;DHT22;19084;44.716;10.218;2022-12-10T08:01:45;5.00;99.90
32694;DHT22;19084;44.716;10.218;2022-12-10T08:04:18;6.50;99.90
32694;DHT22;19084;44.716;10.218;2022-12-10T08:06:54;5.30;99.90
32694;DHT22;19084;44.716;10.218;2022-12-10T08:09:27;5.10;99.90
32694;DHT22;19084;44.716;10.218;2022-12-10T08:12:00;5.20;99.90
32694;DHT22;19084;44.716;10.218;2022-12-10T08:14:32;5.20;99.90
32694;DHT22;19084;44.716;10.218;2022-12-10T08:17:05;5.20;99.90
32694;DHT22;19084;44.716;10.218;2022-12-10T08:19:38;5.30;99.90
32694;DHT22;19084;44.716;10.218;2022-12-10T08:22:11;5.20;99.90
32694;DHT22;19084;44.716;10.218;2022-12-10T08:24:44;5.30;99.90
32694;DHT22;19084;44.716;10.218;2022-12-10T08:27:17;5.30;99.90
32694;DHT22;19084;44.716;10.218;2022-12-10T08:29:50;5.40;99.90
32694;DHT22;19084;44.716;10.218;2022-12-10T08:32:22;5.40;99.90
32694;DHT22;19084;44.716;10.218;2022-12-10T08:34:55;5.40;99.90
32694;DHT22;19084;44.716;10.218;2022-12-10T08:37:28;5.40;99.90
32694;DHT22;19084;44.716;10.218;2022-12-10T08:40:01;5.50;99.90
32694;DHT22;19084;44.716;10.218;2022-12-10T08:42:34;5.50;99.90
32694;DHT22;19084;44.716;10.218;2022-12-10T08:45:07;5.50;99.90
32694;DHT22;19084;44.716;10.218;2022-12-10T08:47:40;5.50;99.90
32694;DHT22;19084;44.716;10.218;2022-12-10T08:50:13;5.50;99.90
32694;DHT22;19084;44.716;10.218;2022-12-10T08:52:45;5.50;99.90
32694;DHT22;19084;44.716;10.218;2022-12-10T08:55:20;5.50;99.90
32694;DHT22;19084;44.716;10.218;2022-12-10T08:57:52;5.60;99.90
32694;DHT22;19084;44.716;10.218;2022-12-10T09:00:26;5.60;99.90
32694;DHT22;19084;44.716;10.218;2022-12-10T09:02:58;5.70;99.90
32694;DHT22;19084;44.716;10.218;2022-12-10T09:05:31;5.70;99.90
32694;DHT22;19084;44.716;10.218;2022-12-10T09:08:06;5.70;99.90
32694;DHT22;19084;44.716;10.218;2022-12-10T09:10:39;5.70;99.90
32694;DHT22;19084;44.716;10.218;2022-12-10T09:13:12;5.70;99.90
32694;DHT22;19084;44.716;10.218;2022-12-10T09:15:51;5.70;99.90
32694;DHT22;19084;44.716;10.218;2022-12-10T09:18:24;5.70;99.90
32694;DHT22;19084;44.716;10.218;2022-12-10T09:20:57;5.70;99.90
32694;DHT22;19084;44.716;10.218;2022-12-10T09:23:30;5.80;99.90
32694;DHT22;19084;44.716;10.218;2022-12-10T09:26:08;5.80;99.90
32694;DHT22;19084;44.716;10.218;2022-12-10T09:28:42;5.80;99.90
32694;DHT22;19084;44.716;10.218;2022-12-10T09:31:17;5.90;99.90
32694;DHT22;19084;44.716;10.218;2022-12-10T09:33:53;5.90;99.90
32694;DHT22;19084;44.716;10.218;2022-12-10T09:36:26;5.90;99.90
32694;DHT22;19084;44.716;10.218;2022-12-10T09:39:05;6.00;99.90
32694;DHT22;19084;44.716;10.218;2022-12-10T09:44:56;6.00;99.90
32694;DHT22;19084;44.716;10.218;2022-12-10T09:47:40;6.00;99.90
32694;DHT22;19084;44.716;10.218;2022-12-10T09:53:14;6.10;99.90
32694;DHT22;19084;44.716;10.218;2022-12-10T09:55:50;6.10;99.90
32694;DHT22;19084;44.716;10.218;2022-12-10T09:58:26;6.20;99.90
32694;DHT22;19084;44.716;10.218;2022-12-10T10:01:04;6.10;99.90
32694;DHT22;19084;44.716;10.218;2022-12-10T10:03:39;6.20;99.90
32694;DHT22;19084;44.716;10.218;2022-12-10T10:06:13;6.20;99.90
32694;DHT22;19084;44.716;10.218;2022-12-10T10:08:51;6.20;99.90
32694;DHT22;19084;44.716;10.218;2022-12-10T10:11:29;6.20;99.90
32694;DHT22;19084;44.716;10.218;2022-12-10T10:14:09;6.30;99.90
32694;DHT22;19084;44.716;10.218;2022-12-10T10:16:50;6.30;99.90
32694;DHT22;19084;44.716;10.218;2022-12-10T10:19:29;6.40;99.90
32694;DHT22;19084;44.716;10.218;2022-12-10T10:22:04;6.40;99.90
32694;DHT22;19084;44.716;10.218;2022-12-10T10:24:41;6.40;99.90
32694;DHT22;19084;44.716;10.218;2022-12-10T10:27:20;6.50;99.90
32694;DHT22;19084;44.716;10.218;2022-12-10T10:29:56;6.50;99.90
32694;DHT22;19084;44.716;10.218;2022-12-10T10:35:22;6.60;99.90
32694;DHT22;19084;44.716;10.218;2022-12-10T10:38:01;6.70;99.90
32694;DHT22;19084;44.716;10.218;2022-12-10T10:40:43;6.70;99.90
32694;DHT22;19084;44.716;10.218;2022-12-10T10:43:24;6.70;99.90
32694;DHT22;19084;44.716;10.218;2022-12-10T10:46:01;6.70;99.90
32694;DHT22;19084;44.716;10.218;2022-12-10T10:48:35;6.80;99.90
32694;DHT22;19084;44.716;10.218;2022-12-10T10:51:18;6.80;99.90
32694;DHT22;19084;44.716;10.218;2022-12-10T10:53:54;6.80;99.90
32694;DHT22;19084;44.716;10.218;2022-12-10T10:56:31;6.80;99.90
32694;DHT22;19084;44.716;10.218;2022-12-10T11:01:52;6.80;99.90
32694;DHT22;19084;44.716;10.218;2022-12-10T11:04:36;6.90;99.90
32694;DHT22;19084;44.716;10.218;2022-12-10T11:07:34;6.90;99.90
32694;DHT22;19084;44.716;10.218;2022-12-10T11:10:23;6.90;99.90
32694;DHT22;19084;44.716;10.218;2022-12-10T11:12:58;6.90;99.90
32694;DHT22;19084;44.716;10.218;2022-12-10T11:15:37;6.90;99.90
32694;DHT22;19084;44.716;10.218;2022-12-10T11:23:41;6.90;99.90
32694;DHT22;19084;44.716;10.218;2022-12-10T11:31:54;7.00;99.90
32694;DHT22;19084;44.716;10.218;2022-12-10T12:14:29;6.70;99.90
32694;DHT22;19084;44.716;10.218;2022-12-10T12:17:21;6.70;99.90
32694;DHT22;19084;44.716;10.218;2022-12-10T12:22:35;6.80;99.90
32694;DHT22;19084;44.716;10.218;2022-12-10T12:25:27;6.90;99.90
32694;DHT22;19084;44.716;10.218;2022-12-10T12:31:01;7.00;99.90
32694;DHT22;19084;44.716;10.218;2022-12-10T12:33:43;7.00;99.90
32694;DHT22;19084;44.716;10.218;2022-12-10T12:36:24;7.00;99.90
32694;DHT22;19084;44.716;10.218;2022-12-10T12:50:44;7.10;99.90
32694;DHT22;19084;44.716;10.218;2022-12-10T12:53:21;7.10;99.90
32694;DHT22;19084;44.716;10.218;2022-12-10T13:04:16;7.10;99.90
32694;DHT22;19084;44.716;10.218;2022-12-10T13:07:09;7.10;99.90
32694;DHT22;19084;44.716;10.218;2022-12-10T13:09:45;7.20;99.90
32694;DHT22;19084;44.716;10.218;2022-12-10T13:12:28;7.30;99.90
32694;DHT22;19084;44.716;10.218;2022-12-10T13:15:23;7.30;99.90
32694;DHT22;19084;44.716;10.218;2022-12-10T13:24:08;7.40;99.90
32694;DHT22;19084;44.716;10.218;2022-12-10T13:40:40;7.50;99.90
32694;DHT22;19084;44.716;10.218;2022-12-10T13:43:51;7.50;99.90
32694;DHT22;19084;44.716;10.218;2022-12-10T13:46:57;7.40;99.90
32694;DHT22;19084;44.716;10.218;2022-12-10T13:49:42;7.40;99.90
32694;DHT22;19084;44.716;10.218;2022-12-10T13:52:26;7.40;99.90
32694;DHT22;19084;44.716;10.218;2022-12-10T13:58:05;7.30;99.90
32694;DHT22;19084;44.716;10.218;2022-12-10T14:00:58;7.40;99.90
32694;DHT22;19084;44.716;10.218;2022-12-10T14:03:48;7.40;99.90
32694;DHT22;19084;44.716;10.218;2022-12-10T14:06:24;7.40;99.90
32694;DHT22;19084;44.716;10.218;2022-12-10T14:09:00;7.40;99.90
32694;DHT22;19084;44.716;10.218;2022-12-10T14:11:38;7.50;99.90
32694;DHT22;19084;44.716;10.218;2022-12-10T14:14:22;7.40;99.90
32694;DHT22;19084;44.716;10.218;2022-12-10T14:16:55;7.40;99.90
32694;DHT22;19084;44.716;10.218;2022-12-10T14:19:33;7.40;99.90
32694;DHT22;19084;44.716;10.218;2022-12-10T14:22:07;7.40;99.90
32694;DHT22;19084;44.716;10.218;2022-12-10T14:24:41;7.50;99.90
32694;DHT22;19084;44.716;10.218;2022-12-10T14:27:17;7.40;99.90
32694;DHT22;19084;44.716;10.218;2022-12-10T14:29:57;7.40;99.90
32694;DHT22;19084;44.716;10.218;2022-12-10T14:32:33;7.50;99.90
32694;DHT22;19084;44.716;10.218;2022-12-10T14:35:13;7.50;99.90
32694;DHT22;19084;44.716;10.218;2022-12-10T14:37:57;7.50;99.90
32694;DHT22;19084;44.716;10.218;2022-12-10T14:40:41;7.40;99.90
32694;DHT22;19084;44.716;10.218;2022-12-10T14:43:18;7.40;99.90
32694;DHT22;19084;44.716;10.218;2022-12-10T14:45:57;7.40;99.90
32694;DHT22;19084;44.716;10.218;2022-12-10T14:48:35;7.40;99.90
32694;DHT22;19084;44.716;10.218;2022-12-10T14:51:15;7.40;99.90
32694;DHT22;19084;44.716;10.218;2022-12-10T14:53:50;7.40;99.90
32694;DHT22;19084;44.716;10.218;2022-12-10T14:56:29;7.50;99.90
32694;DHT22;19084;44.716;10.218;2022-12-10T14:59:15;7.50;99.90
32694;DHT22;19084;44.716;10.218;2022-12-10T15:01:54;7.50;99.90
32694;DHT22;19084;44.716;10.218;2022-12-10T15:04:40;7.40;99.90
32694;DHT22;19084;44.716;10.218;2022-12-10T15:07:18;7.40;99.90
32694;DHT22;19084;44.716;10.218;2022-12-10T15:09:53;7.40;99.90
32694;DHT22;19084;44.716;10.218;2022-12-10T15:12:29;7.30;99.90
32694;DHT22;19084;44.716;10.218;2022-12-10T15:15:10;7.30;99.90
32694;DHT22;19084;44.716;10.218;2022-12-10T15:23:15;7.30;99.90
32694;DHT22;19084;44.716;10.218;2022-12-10T15:31:18;7.20;99.90
32694;DHT22;19084;44.716;10.218;2022-12-10T15:33:54;7.20;99.90
32694;DHT22;19084;44.716;10.218;2022-12-10T15:36:36;7.20;99.90
32694;DHT22;19084;44.716;10.218;2022-12-10T15:39:21;7.20;99.90
32694;DHT22;19084;44.716;10.218;2022-12-10T15:41:57;7.10;99.90
32694;DHT22;19084;44.716;10.218;2022-12-10T15:47:23;7.10;99.90
32694;DHT22;19084;44.716;10.218;2022-12-10T15:49:56;7.10;99.90
32694;DHT22;19084;44.716;10.218;2022-12-10T15:52:31;7.10;99.90
32694;DHT22;19084;44.716;10.218;2022-12-10T15:55:05;7.10;99.90
32694;DHT22;19084;44.716;10.218;2022-12-10T15:57:38;7.00;99.90
32694;DHT22;19084;44.716;10.218;2022-12-10T16:00:25;7.10;99.90
32694;DHT22;19084;44.716;10.218;2022-12-10T16:03:02;7.00;99.90
32694;DHT22;19084;44.716;10.218;2022-12-10T16:05:37;7.00;99.90
32694;DHT22;19084;44.716;10.218;2022-12-10T16:11:12;7.10;99.90
32694;DHT22;19084;44.716;10.218;2022-12-10T16:13:49;7.10;99.90
32694;DHT22;19084;44.716;10.218;2022-12-10T16:16:24;7.10;99.90
32694;DHT22;19084;44.716;10.218;2022-12-10T16:18:57;7.00;99.90
32694;DHT22;19084;44.716;10.218;2022-12-10T16:21:29;7.00;99.90
32694;DHT22;19084;44.716;10.218;2022-12-10T16:24:02;7.00;99.90
32694;DHT22;19084;44.716;10.218;2022-12-10T16:26:35;7.00;99.90
32694;DHT22;19084;44.716;10.218;2022-12-10T16:29:09;6.90;99.90
32694;DHT22;19084;44.716;10.218;2022-12-10T16:31:42;7.00;99.90
32694;DHT22;19084;44.716;10.218;2022-12-10T16:34:15;7.00;99.90
32694;DHT22;19084;44.716;10.218;2022-12-10T16:36:48;6.90;99.90
32694;DHT22;19084;44.716;10.218;2022-12-10T16:39:21;6.90;99.90
32694;DHT22;19084;44.716;10.218;2022-12-10T16:42:01;6.90;99.90
32694;DHT22;19084;44.716;10.218;2022-12-10T16:44:34;6.90;99.90
32694;DHT22;19084;44.716;10.218;2022-12-10T16:47:14;6.90;99.90
32694;DHT22;19084;44.716;10.218;2022-12-10T16:49:48;6.90;99.90
32694;DHT22;19084;44.716;10.218;2022-12-10T16:52:21;6.90;99.90
32694;DHT22;19084;44.716;10.218;2022-12-10T16:54:54;6.90;99.90
32694;DHT22;19084;44.716;10.218;2022-12-10T16:57:27;6.90;99.90
32694;DHT22;19084;44.716;10.218;2022-12-10T17:00:08;6.90;99.90
32694;DHT22;19084;44.716;10.218;2022-12-10T17:02:43;6.90;99.90
32694;DHT22;19084;44.716;10.218;2022-12-10T17:05:18;6.90;99.90
32694;DHT22;19084;44.716;10.218;2022-12-10T17:07:54;6.90;99.90
32694;DHT22;19084;44.716;10.218;2022-12-10T17:10:27;6.90;99.90
32694;DHT22;19084;44.716;10.218;2022-12-10T17:13:15;6.80;99.90
32694;DHT22;19084;44.716;10.218;2022-12-10T17:15:49;6.80;99.90
32694;DHT22;19084;44.716;10.218;2022-12-10T17:18:22;6.80;99.90
32694;DHT22;19084;44.716;10.218;2022-12-10T17:20:55;6.80;99.90
32694;DHT22;19084;44.716;10.218;2022-12-10T17:23:28;6.80;99.90
32694;DHT22;19084;44.716;10.218;2022-12-10T17:26:01;6.80;99.90
32694;DHT22;19084;44.716;10.218;2022-12-10T17:28:34;6.80;99.90
32694;DHT22;19084;44.716;10.218;2022-12-10T17:31:07;6.80;99.90
32694;DHT22;19084;44.716;10.218;2022-12-10T17:33:40;6.80;99.90
32694;DHT22;19084;44.716;10.218;2022-12-10T17:36:17;6.80;99.90
32694;DHT22;19084;44.716;10.218;2022-12-10T17:38:50;6.80;99.90
32694;DHT22;19084;44.716;10.218;2022-12-10T17:41:23;6.80;99.90
32694;DHT22;19084;44.716;10.218;2022-12-10T17:43:55;6.80;99.90
32694;DHT22;19084;44.716;10.218;2022-12-10T17:46:28;6.80;99.90
32694;DHT22;19084;44.716;10.218;2022-12-10T17:49:01;6.80;99.90
32694;DHT22;19084;44.716;10.218;2022-12-10T17:51:34;6.80;99.90
32694;DHT22;19084;44.716;10.218;2022-12-10T17:54:07;6.80;99.90
32694;DHT22;19084;44.716;10.218;2022-12-10T17:56:41;6.80;99.90
32694;DHT22;19084;44.716;10.218;2022-12-10T17:59:15;6.80;99.90
32694;DHT22;19084;44.716;10.218;2022-12-10T18:01:47;6.80;99.90
32694;DHT22;19084;44.716;10.218;2022-12-10T18:04:20;6.90;99.90
32694;DHT22;19084;44.716;10.218;2022-12-10T18:06:53;8.20;99.90
32694;DHT22;19084;44.716;10.218;2022-12-10T18:09:26;6.80;99.90
32694;DHT22;19084;44.716;10.218;2022-12-10T18:11:58;6.80;99.90
32694;DHT22;19084;44.716;10.218;2022-12-10T18:14:31;6.80;99.90
32694;DHT22;19084;44.716;10.218;2022-12-10T18:17:10;6.80;99.90
32694;DHT22;19084;44.716;10.218;2022-12-10T18:19:44;6.80;99.90
32694;DHT22;19084;44.716;10.218;2022-12-10T18:22:24;6.80;99.90
32694;DHT22;19084;44.716;10.218;2022-12-10T18:24:56;6.80;99.90
32694;DHT22;19084;44.716;10.218;2022-12-10T18:27:29;6.80;99.90
32694;DHT22;19084;44.716;10.218;2022-12-10T18:30:03;6.80;99.90
32694;DHT22;19084;44.716;10.218;2022-12-10T18:32:36;6.80;99.90
32694;DHT22;19084;44.716;10.218;2022-12-10T18:35:10;6.80;99.90
32694;DHT22;19084;44.716;10.218;2022-12-10T18:37:44;6.80;99.90
32694;DHT22;19084;44.716;10.218;2022-12-10T18:40:20;6.80;99.90
32694;DHT22;19084;44.716;10.218;2022-12-10T18:42:53;6.80;99.90
32694;DHT22;19084;44.716;10.218;2022-12-10T18:45:26;6.80;99.90
32694;DHT22;19084;44.716;10.218;2022-12-10T18:47:58;6.70;99.90